M I D A S
Marine Information and Data Acquisition System
Tripno 2287 of the Zeeleeuw from 2012-04-11 06:49:18 to 2012-04-11 14:26:17
Back to CruiseResearch ActivitiesStationsMapUnderway DataData graphs

EquipmentUnitsComments
TimeDGPSUTC
LatitudeDGPSDM.mWGS84
LongitudeDGPSDM.mWGS84
SpeedMeteo Stationm/sRelative wind speed
DirectionMeteo StationdegRelative wind direction
TemperatureMeteo Stationdeg CelciusAir temperature
PressureMeteo StationPaAtmospheric pressure
HumidityMeteo Station%Relative humidity
Missing or incorrect values are displayed as -999
Metereological data collected by the RV Zeeleeuw from 2012-04-11 06:29:50 to 2012-04-11 14:31:55
Time Latitude Longitude Speed Direction Temperature Pressure Humidity
2012-04-11 06:30 51°13.636 2°56.019 2.8 11 6.2 99680 49
2012-04-11 06:31 51°13.637 2°56.019 3.2 11 6.2 99680 49
2012-04-11 06:32 51°13.637 2°56.019 2.6 13 6.2 99680 50
2012-04-11 06:33 51°13.636 2°56.02 3.1 13 6.2 99680 48
2012-04-11 06:34 51°13.636 2°56.019 3.9 9 6.2 99680 49
2012-04-11 06:35 51°13.637 2°56.018 3.9 13 6.2 99680 49
2012-04-11 06:36 51°13.636 2°56.019 2.7 2 6.2 99690 47
2012-04-11 06:37 51°13.636 2°56.019 4.9 4 6.3 99690 48
2012-04-11 06:38 51°13.635 2°56.02 4.2 20 6.3 99700 48
2012-04-11 06:39 51°13.635 2°56.02 1.9 8 6.3 99690 47
2012-04-11 06:40 51°13.635 2°56.019 2.7 3 6.4 99700 47
2012-04-11 06:41 51°13.636 2°56.018 2.5 15 6.4 99700 48
2012-04-11 06:42 51°13.635 2°56.018 1 19 6.4 99700 47
2012-04-11 06:43 51°13.636 2°56.019 2.7 6 6.4 99700 47
2012-04-11 06:44 51°13.636 2°56.019 2.6 12 6.4 99700 47
2012-04-11 06:45 51°13.636 2°56.019 4 23 6.4 99700 47
2012-04-11 06:46 51°13.637 2°56.019 4.1 9 6.4 99700 47
2012-04-11 06:47 51°13.637 2°56.019 2.7 28 6.4 99700 47
2012-04-11 06:48 51°13.637 2°56.019 2 4 6.4 99700 47
2012-04-11 06:49 51°13.636 2°56.02 2.3 5 6.5 99700 47
2012-04-11 06:50 51°13.635 2°56.02 2.7 17 6.5 99690 48
2012-04-11 06:51 51°13.634 2°56.019 2.6 21 6.5 99690 49
2012-04-11 06:52 51°13.644 2°55.974 2.5 33 6.5 99700 48
2012-04-11 06:53 51°13.668 2°55.884 1.3 40 6.6 99690 49
2012-04-11 06:54 51°13.71 2°55.789 2.7 23 6.6 99690 47
2012-04-11 06:55 51°13.768 2°55.699 1.7 31 6.7 99690 48
2012-04-11 06:56 51°13.834 2°55.638 1.1 34 6.7 99690 47
2012-04-11 06:57 51°13.912 2°55.63 -999 20 6.8 99690 48
2012-04-11 06:58 51°13.965 2°55.666 1.6 21 6.9 99700 49
2012-04-11 06:59 51°13.978 2°55.659 2.2 27 7.1 99700 48
2012-04-11 07:00 51°14.036 2°55.534 3.6 250 7.2 99690 47
2012-04-11 07:01 51°14.154 2°55.397 4.1 28 7.3 99700 46
2012-04-11 07:02 51°14.286 2°55.275 4.7 320 7.4 99700 47
2012-04-11 07:03 51°14.426 2°55.146 4.6 21 7.4 99690 47
2012-04-11 07:04 51°14.576 2°55.009 6.6 245 7.4 99690 46
2012-04-11 07:05 51°14.737 2°54.819 6.5 22 7.4 99700 46
2012-04-11 07:06 51°14.913 2°54.622 6.2 245 7.5 99700 47
2012-04-11 07:07 51°15.083 2°54.426 7.5 25 7.5 99700 47
2012-04-11 07:08 51°15.25 2°54.204 8.5 26 7.5 99710 46
2012-04-11 07:09 51°15.418 2°53.995 8.8 24 7.6 99680 47
2012-04-11 07:10 51°15.584 2°53.794 8 249 7.7 99670 47
2012-04-11 07:11 51°15.748 2°53.592 8.9 250 7.7 99680 46
2012-04-11 07:12 51°15.918 2°53.406 8.4 250 7.8 99670 47
2012-04-11 07:13 51°16.1 2°53.229 7.2 250 7.8 99670 47
2012-04-11 07:14 51°16.288 2°53.095 7.2 252 7.9 99680 47
2012-04-11 07:15 51°16.479 2°52.953 7.8 253 7.9 99680 46
2012-04-11 07:16 51°16.666 2°52.796 7.6 248 7.9 99670 46
2012-04-11 07:17 51°16.857 2°52.663 7.2 261 7.9 99670 45
2012-04-11 07:18 51°17.055 2°52.537 8.7 285 7.9 99670 46
2012-04-11 07:19 51°17.239 2°52.389 8.5 252 8 99670 47
2012-04-11 07:20 51°17.425 2°52.222 8.1 250 7.9 99670 46
2012-04-11 07:21 51°17.612 2°52.067 7.3 249 7.9 99670 47
2012-04-11 07:22 51°17.802 2°51.935 9.9 255 7.9 99670 46
2012-04-11 07:23 51°17.996 2°51.82 8.8 255 7.9 99680 46
2012-04-11 07:24 51°18.193 2°51.687 9.9 253 7.9 99680 47
2012-04-11 07:25 51°18.379 2°51.53 8.9 247 7.9 99670 46
2012-04-11 07:26 51°18.566 2°51.386 7.7 251 7.9 99670 47
2012-04-11 07:27 51°18.759 2°51.238 8.3 281 7.9 99680 47
2012-04-11 07:28 51°18.95 2°51.105 11.2 254 7.9 99670 47
2012-04-11 07:29 51°19.14 2°50.945 10.2 252 7.8 99670 47
2012-04-11 07:30 51°19.334 2°50.808 9.9 255 7.8 99680 48
2012-04-11 07:31 51°19.526 2°50.666 9.8 254 7.8 99680 47
2012-04-11 07:32 51°19.711 2°50.513 9.1 257 7.8 99670 46
2012-04-11 07:33 51°19.907 2°50.367 10.2 256 7.9 99670 47
2012-04-11 07:34 51°20.098 2°50.233 9.8 256 7.9 99680 46
2012-04-11 07:35 51°20.286 2°50.078 9.2 250 7.9 99670 45
2012-04-11 07:36 51°20.449 2°49.851 5.2 249 7.9 99660 46
2012-04-11 07:37 51°20.608 2°49.615 10.3 20 7.9 99660 46
2012-04-11 07:38 51°20.776 2°49.394 10.9 251 7.9 99670 46
2012-04-11 07:39 51°20.953 2°49.19 11.8 252 7.9 99670 46
2012-04-11 07:40 51°21.119 2°48.982 5.5 249 8 99680 46
2012-04-11 07:41 51°21.272 2°48.774 10.9 252 8 99670 45
2012-04-11 07:42 51°21.448 2°48.602 10.2 257 8 99680 47
2012-04-11 07:43 51°21.642 2°48.487 9.7 259 8 99690 46
2012-04-11 07:44 51°21.844 2°48.387 9.9 257 8 99690 45
2012-04-11 07:45 51°22.046 2°48.278 11.1 258 8 99690 46
2012-04-11 07:46 51°22.24 2°48.147 10.1 260 8 99680 45
2012-04-11 07:47 51°22.444 2°48.03 7.3 260 8 99690 45
2012-04-11 07:48 51°22.646 2°47.922 8.8 261 8 99690 46
2012-04-11 07:49 51°22.843 2°47.799 7.4 251 8 99690 45
2012-04-11 07:50 51°23.047 2°47.68 7.2 265 8 99690 46
2012-04-11 07:51 51°23.254 2°47.572 12 260 8 99690 46
2012-04-11 07:52 51°23.455 2°47.446 10.8 259 8 99690 46
2012-04-11 07:53 51°23.652 2°47.334 11.6 259 8 99690 46
2012-04-11 07:54 51°23.857 2°47.219 10.4 257 7.9 99690 47
2012-04-11 07:55 51°24.06 2°47.11 10.7 261 7.9 99690 46
2012-04-11 07:56 51°24.252 2°46.974 10.1 254 8 99680 46
2012-04-11 07:57 51°24.446 2°46.836 13.1 259 8 99690 47
2012-04-11 07:58 51°24.646 2°46.7 11.9 256 8 99680 47
2012-04-11 07:59 51°24.842 2°46.567 10.1 255 7.9 99680 46
2012-04-11 08:00 51°25.041 2°46.436 9.7 253 8 99680 47
2012-04-11 08:01 51°25.239 2°46.299 11.4 257 7.9 99680 47
2012-04-11 08:02 51°25.432 2°46.155 10 254 7.9 99690 46
2012-04-11 08:03 51°25.634 2°46.019 9.4 261 7.9 99680 47
2012-04-11 08:04 51°25.831 2°45.89 9.4 254 7.9 99690 47
2012-04-11 08:05 51°26.024 2°45.743 11.4 254 7.8 99690 47
2012-04-11 08:06 51°26.211 2°45.59 14.1 257 7.8 99700 47
2012-04-11 08:07 51°26.406 2°45.437 9.4 254 7.8 99700 47
2012-04-11 08:08 51°26.594 2°45.288 10.3 255 7.8 99690 48
2012-04-11 08:09 51°26.787 2°45.126 9.4 257 7.8 99690 48
2012-04-11 08:10 51°26.975 2°44.961 12.1 255 7.8 99690 48
2012-04-11 08:11 51°27.168 2°44.813 8.8 254 7.8 99690 47
2012-04-11 08:12 51°27.36 2°44.665 6.2 256 7.7 99680 47
2012-04-11 08:13 51°27.548 2°44.511 5.7 255 7.7 99680 46
2012-04-11 08:14 51°27.743 2°44.357 10.1 255 7.6 99690 46
2012-04-11 08:15 51°27.938 2°44.209 11.7 258 7.6 99700 46
2012-04-11 08:16 51°28.132 2°44.057 11.3 256 7.6 99690 47
2012-04-11 08:17 51°28.318 2°43.902 11.4 251 7.6 99690 47
2012-04-11 08:18 51°28.514 2°43.748 10.2 254 7.6 99700 48
2012-04-11 08:19 51°28.705 2°43.592 9.9 252 7.6 99700 47
2012-04-11 08:20 51°28.897 2°43.442 9.4 257 7.6 99700 47
2012-04-11 08:21 51°29.092 2°43.303 12.1 255 7.6 99710 48
2012-04-11 08:22 51°29.284 2°43.161 10.3 257 7.6 99700 49
2012-04-11 08:23 51°29.489 2°43.067 7.1 270 7.6 99710 48
2012-04-11 08:24 51°29.691 2°43.151 5.2 26 7.5 99720 47
2012-04-11 08:25 51°29.884 2°43.261 5.9 20 7.5 99720 49
2012-04-11 08:26 51°30.083 2°43.379 5.8 22 7.4 99720 48
2012-04-11 08:27 51°30.287 2°43.479 6 27 7.4 99720 47
2012-04-11 08:28 51°30.487 2°43.563 4.7 27 7.4 99720 48
2012-04-11 08:29 51°30.683 2°43.65 4.9 26 7.5 99720 49
2012-04-11 08:30 51°30.882 2°43.766 4.4 20 7.4 99720 49
2012-04-11 08:31 51°31.074 2°43.866 5.4 24 7.4 99730 49
2012-04-11 08:32 51°31.278 2°43.963 4.9 19 7.4 99720 48
2012-04-11 08:33 51°31.476 2°44.067 4.9 26 7.4 99730 50
2012-04-11 08:34 51°31.668 2°44.174 4.9 22 7.4 99720 50
2012-04-11 08:35 51°31.869 2°44.271 5.3 28 7.5 99720 48
2012-04-11 08:36 51°32.068 2°44.36 6.6 19 7.4 99730 48
2012-04-11 08:37 51°32.266 2°44.454 5 28 7.4 99720 48
2012-04-11 08:38 51°32.457 2°44.556 6.1 27 7.4 99730 49
2012-04-11 08:39 51°32.652 2°44.663 4.1 27 7.4 99730 49
2012-04-11 08:40 51°32.846 2°44.763 3.4 24 7.4 99730 50
2012-04-11 08:41 51°33.048 2°44.852 4.2 27 7.4 99720 48
2012-04-11 08:42 51°33.255 2°44.901 3.6 267 7.5 99730 49
2012-04-11 08:43 51°33.457 2°44.959 4.6 270 7.5 99730 50
2012-04-11 08:44 51°33.669 2°45.023 6.2 23 7.4 99730 48
2012-04-11 08:45 51°33.877 2°45.096 4.4 80 7.4 99730 47
2012-04-11 08:46 51°34.08 2°45.157 4.2 279 7.4 99730 48
2012-04-11 08:47 51°34.278 2°45.266 4 75 7.4 99730 49
2012-04-11 08:48 51°34.476 2°45.368 5 86 7.4 99730 47
2012-04-11 08:49 51°34.679 2°45.448 4.7 75 7.4 99720 47
2012-04-11 08:50 51°34.879 2°45.531 5.3 74 7.5 99720 48
2012-04-11 08:51 51°35.075 2°45.623 5.5 81 7.5 99730 48
2012-04-11 08:52 51°35.272 2°45.706 4 80 7.5 99720 47
2012-04-11 08:53 51°35.464 2°45.811 3.5 76 7.5 99730 49
2012-04-11 08:54 51°35.654 2°45.925 5.7 76 7.5 99730 49
2012-04-11 08:55 51°35.847 2°46.031 5.1 76 7.5 99730 49
2012-04-11 08:56 51°36.039 2°46.131 3 79 7.5 99730 47
2012-04-11 08:57 51°36.224 2°46.253 4.6 78 7.5 99730 47
2012-04-11 08:58 51°36.407 2°46.389 5.9 79 7.5 99730 47
2012-04-11 08:59 51°36.591 2°46.514 6.1 80 7.5 99730 46
2012-04-11 09:00 51°36.786 2°46.617 5.4 75 7.5 99730 47
2012-04-11 09:01 51°36.972 2°46.733 5.7 75 7.5 99730 47
2012-04-11 09:02 51°37.162 2°46.842 5.7 76 7.5 99730 48
2012-04-11 09:03 51°37.354 2°46.958 5.8 75 7.6 99730 47
2012-04-11 09:04 51°37.54 2°47.08 4.6 78 7.5 99730 47
2012-04-11 09:05 51°37.731 2°47.201 3.9 79 7.6 99730 49
2012-04-11 09:06 51°37.914 2°47.329 4.6 81 7.5 99730 47
2012-04-11 09:07 51°38.104 2°47.444 5.9 79 7.5 99730 46
2012-04-11 09:08 51°38.286 2°47.577 5.9 76 7.6 99730 48
2012-04-11 09:09 51°38.472 2°47.695 5.8 74 7.5 99730 47
2012-04-11 09:10 51°38.659 2°47.813 7.3 76 7.5 99730 47
2012-04-11 09:11 51°38.847 2°47.918 6 77 7.5 99730 47
2012-04-11 09:12 51°39.032 2°48.032 8 76 7.5 99730 47
2012-04-11 09:13 51°39.217 2°48.149 3.7 80 7.5 99730 47
2012-04-11 09:14 51°39.397 2°48.268 5.2 76 7.5 99730 47
2012-04-11 09:15 51°39.585 2°48.378 4.4 290 7.5 99730 46
2012-04-11 09:16 51°39.774 2°48.484 3.9 75 7.5 99720 48
2012-04-11 09:17 51°39.957 2°48.582 3.7 84 7.6 99730 47
2012-04-11 09:18 51°40.14 2°48.691 1.9 284 7.6 99730 47
2012-04-11 09:19 51°40.325 2°48.815 1.6 282 7.6 99730 47
2012-04-11 09:20 51°40.512 2°48.929 3.4 282 7.7 99730 49
2012-04-11 09:21 51°40.698 2°49.037 4.5 75 7.7 99730 47
2012-04-11 09:22 51°40.885 2°49.155 3 76 7.7 99730 47
2012-04-11 09:23 51°41.073 2°49.263 4.5 76 7.6 99730 49
2012-04-11 09:24 51°41.261 2°49.372 2.5 287 7.6 99730 47
2012-04-11 09:25 51°41.447 2°49.476 3.7 79 7.7 99730 47
2012-04-11 09:26 51°41.634 2°49.586 0.3 277 7.7 99730 47
2012-04-11 09:27 51°41.794 2°49.758 1.8 73 7.8 99730 47
2012-04-11 09:28 51°41.965 2°49.765 10.8 286 7.8 99720 49
2012-04-11 09:29 51°42.069 2°49.488 13.1 283 7.8 99660 47
2012-04-11 09:30 51°42.141 2°49.174 13.7 281 7.8 99690 47
2012-04-11 09:31 51°42.127 2°48.837 13.9 284 7.7 99690 48
2012-04-11 09:32 51°41.964 2°48.663 8.1 281 7.7 99680 48
2012-04-11 09:33 51°41.769 2°48.531 13.1 284 7.7 99680 48
2012-04-11 09:34 51°41.573 2°48.396 15.2 284 7.7 99680 48
2012-04-11 09:35 51°41.376 2°48.266 14.9 283 7.6 99660 48
2012-04-11 09:36 51°41.179 2°48.137 12.7 280 7.6 99670 48
2012-04-11 09:37 51°40.98 2°48.009 14.5 284 7.6 99670 48
2012-04-11 09:38 51°40.781 2°47.887 17.3 281 7.6 99670 48
2012-04-11 09:39 51°40.58 2°47.77 13.3 286 7.6 99670 48
2012-04-11 09:40 51°40.378 2°47.654 18.1 286 7.6 99680 49
2012-04-11 09:41 51°40.178 2°47.53 17.6 282 7.6 99690 48
2012-04-11 09:42 51°39.976 2°47.408 14.6 283 7.6 99680 48
2012-04-11 09:43 51°39.775 2°47.284 8.4 281 7.6 99690 48
2012-04-11 09:44 51°39.573 2°47.165 14.7 282 7.6 99690 48
2012-04-11 09:45 51°39.367 2°47.044 15 284 7.6 99680 48
2012-04-11 09:46 51°39.168 2°46.924 15.6 284 7.6 99680 47
2012-04-11 09:47 51°38.962 2°46.816 18.3 286 7.6 99680 47
2012-04-11 09:48 51°38.756 2°46.71 12.2 280 7.6 99700 47
2012-04-11 09:49 51°38.554 2°46.595 14 281 7.6 99680 47
2012-04-11 09:50 51°38.355 2°46.482 7.9 280 7.7 99690 47
2012-04-11 09:51 51°38.153 2°46.361 17.3 282 7.7 99690 47
2012-04-11 09:52 51°37.945 2°46.246 17 341 7.7 99680 46
2012-04-11 09:53 51°37.741 2°46.126 17.7 281 7.6 99690 46
2012-04-11 09:54 51°37.544 2°45.983 19.8 285 7.6 99700 47
2012-04-11 09:55 51°37.343 2°45.848 11.5 277 7.6 99700 47
2012-04-11 09:56 51°37.138 2°45.732 15.2 282 7.6 99690 47
2012-04-11 09:57 51°36.935 2°45.599 7.6 282 7.6 99700 47
2012-04-11 09:58 51°36.734 2°45.46 7.3 284 7.7 99710 47
2012-04-11 09:59 51°36.525 2°45.356 11.4 282 7.6 99690 47
2012-04-11 10:00 51°36.321 2°45.228 7.4 281 7.7 99710 48
2012-04-11 10:01 51°36.121 2°45.095 16.9 284 7.7 99710 47
2012-04-11 10:02 51°35.909 2°44.985 8 282 7.7 99710 47
2012-04-11 10:03 51°35.706 2°44.867 19.3 281 7.7 99700 46
2012-04-11 10:04 51°35.499 2°44.726 13.5 284 7.8 99700 46
2012-04-11 10:05 51°35.291 2°44.61 17.2 283 7.8 99680 45
2012-04-11 10:06 51°35.086 2°44.482 12.9 283 7.8 99710 46
2012-04-11 10:07 51°34.886 2°44.33 16.8 281 7.8 99700 46
2012-04-11 10:08 51°34.683 2°44.192 16.6 287 7.8 99710 45
2012-04-11 10:09 51°34.475 2°44.073 12.8 285 7.8 99720 46
2012-04-11 10:10 51°34.272 2°43.932 19.5 282 7.7 99720 46
2012-04-11 10:11 51°34.067 2°43.802 16.2 282 7.7 99720 47
2012-04-11 10:12 51°33.87 2°43.636 16.4 283 7.6 99740 47
2012-04-11 10:13 51°33.692 2°43.424 13.2 279 7.5 99740 47
2012-04-11 10:14 51°33.593 2°43.112 13 286 7.5 99730 48
2012-04-11 10:15 51°33.546 2°42.771 12.3 286 7.5 99740 48
2012-04-11 10:16 51°33.505 2°42.427 10.1 279 7.5 99720 47
2012-04-11 10:17 51°33.46 2°42.118 10 284 7.6 99740 47
2012-04-11 10:18 51°33.414 2°41.847 10.9 279 7.7 99740 47
2012-04-11 10:19 51°33.373 2°41.583 11.3 282 7.7 99730 47
2012-04-11 10:20 51°33.39 2°41.324 9.9 286 7.7 99740 48
2012-04-11 10:21 51°33.457 2°41.122 9 285 7.7 99740 47
2012-04-11 10:22 51°33.512 2°41.016 5.6 281 7.7 99760 46
2012-04-11 10:23 51°33.539 2°40.943 6.4 284 7.8 99750 47
2012-04-11 10:24 51°33.562 2°40.9 4.1 76 7.8 99760 47
2012-04-11 10:25 51°33.626 2°40.929 3 77 7.9 99760 47
2012-04-11 10:26 51°33.778 2°40.985 1.4 285 7.9 99770 46
2012-04-11 10:27 51°33.956 2°41.055 1.2 77 8 99770 46
2012-04-11 10:28 51°34.124 2°41.149 1.6 75 8 99770 47
2012-04-11 10:29 51°34.287 2°41.263 2.7 77 8 99770 47
2012-04-11 10:30 51°34.451 2°41.366 1.7 78 8 99770 47
2012-04-11 10:31 51°34.615 2°41.468 0.3 282 8 99770 47
2012-04-11 10:32 51°34.781 2°41.568 2.2 75 8.1 99770 48
2012-04-11 10:33 51°34.944 2°41.666 1.5 290 8.1 99760 47
2012-04-11 10:34 51°35.112 2°41.771 2.7 81 8.1 99770 47
2012-04-11 10:35 51°35.28 2°41.864 0.6 78 8.1 99760 47
2012-04-11 10:36 51°35.443 2°41.972 0.4 287 8.1 99770 47
2012-04-11 10:37 51°35.61 2°42.07 1.9 79 8.1 99760 47
2012-04-11 10:38 51°35.775 2°42.175 0.9 287 8.1 99760 46
2012-04-11 10:39 51°35.942 2°42.273 1.5 83 8.1 99760 47
2012-04-11 10:40 51°36.11 2°42.376 1.4 83 8.1 99760 47
2012-04-11 10:41 51°36.275 2°42.479 0.5 81 8.1 99760 47
2012-04-11 10:42 51°36.439 2°42.585 0.1 282 8.2 99760 48
2012-04-11 10:43 51°36.604 2°42.694 2.5 75 8.2 99760 47
2012-04-11 10:44 51°36.77 2°42.791 1.9 85 8.2 99760 48
2012-04-11 10:45 51°36.934 2°42.886 1.5 23 8.2 99760 48
2012-04-11 10:46 51°37.096 2°42.987 1.2 75 8.2 99760 47
2012-04-11 10:47 51°37.257 2°43.089 2.8 27 8.2 99760 47
2012-04-11 10:48 51°37.426 2°43.168 3.5 74 8.2 99760 48
2012-04-11 10:49 51°37.597 2°43.235 1.6 265 8.1 99760 48
2012-04-11 10:50 51°37.771 2°43.308 2.5 289 8.1 99760 48
2012-04-11 10:51 51°37.942 2°43.394 0.7 262 8.1 99760 48
2012-04-11 10:52 51°38.111 2°43.486 1.4 82 8.1 99760 49
2012-04-11 10:53 51°38.28 2°43.572 0.8 264 8.1 99760 49
2012-04-11 10:54 51°38.449 2°43.654 1.9 285 8.1 99770 49
2012-04-11 10:55 51°38.617 2°43.732 2.8 280 8.1 99760 48
2012-04-11 10:56 51°38.789 2°43.801 2.5 280 8.1 99760 48
2012-04-11 10:57 51°38.962 2°43.873 3.2 279 8 99770 48
2012-04-11 10:58 51°39.132 2°43.952 2.8 25 8 99770 47
2012-04-11 10:59 51°39.302 2°44.018 1.8 263 7.9 99760 47
2012-04-11 11:00 51°39.471 2°44.085 2 265 8 99770 50
2012-04-11 11:01 51°39.637 2°44.16 2.4 268 8 99760 50
2012-04-11 11:02 51°39.803 2°44.242 2.9 19 7.9 99770 50
2012-04-11 11:03 51°39.973 2°44.32 1.7 265 7.9 99760 49
2012-04-11 11:04 51°40.141 2°44.389 3.5 278 7.9 99770 50
2012-04-11 11:05 51°40.31 2°44.459 1.6 261 7.9 99770 49
2012-04-11 11:06 51°40.478 2°44.525 3.1 279 7.9 99760 49
2012-04-11 11:07 51°40.646 2°44.602 1.6 286 7.9 99770 49
2012-04-11 11:08 51°40.81 2°44.696 1.5 286 7.9 99770 50
2012-04-11 11:09 51°40.981 2°44.771 2.5 26 8 99770 49
2012-04-11 11:10 51°41.148 2°44.849 2.7 77 7.9 99770 49
2012-04-11 11:11 51°41.315 2°44.933 0.7 283 7.9 99770 49
2012-04-11 11:12 51°41.484 2°45.011 2.4 265 8 99770 51
2012-04-11 11:13 51°41.652 2°45.1 2.1 280 8 99770 49
2012-04-11 11:14 51°41.819 2°45.175 1.1 267 8 99770 48
2012-04-11 11:15 51°41.983 2°45.272 1.4 280 8 99770 49
2012-04-11 11:16 51°42.146 2°45.384 1.6 20 8 99770 50
2012-04-11 11:17 51°42.31 2°45.484 0.1 283 8 99770 50
2012-04-11 11:18 51°42.473 2°45.594 0.6 265 8 99770 49
2012-04-11 11:19 51°42.638 2°45.695 2 285 8.1 99770 50
2012-04-11 11:20 51°42.802 2°45.797 1.4 263 8.1 99760 51
2012-04-11 11:21 51°42.965 2°45.899 1.4 283 8.1 99770 49
2012-04-11 11:22 51°43.129 2°45.991 1.2 78 8.1 99760 49
2012-04-11 11:23 51°43.295 2°45.992 8.3 249 8.1 99760 49
2012-04-11 11:24 51°43.418 2°45.753 9.3 283 8.1 99740 49
2012-04-11 11:25 51°43.552 2°45.518 9.9 22 8 99740 50
2012-04-11 11:26 51°43.691 2°45.286 7.7 277 8 99740 50
2012-04-11 11:27 51°43.827 2°45.058 9.3 22 8 99740 49
2012-04-11 11:28 51°43.963 2°44.823 8.5 25 7.9 99730 50
2012-04-11 11:29 51°44.097 2°44.591 9.4 280 7.9 99740 50
2012-04-11 11:30 51°44.233 2°44.364 10.6 287 7.9 99740 50
2012-04-11 11:31 51°44.292 2°44.069 13 285 7.9 99730 50
2012-04-11 11:32 51°44.161 2°43.822 12.6 340 7.9 99750 50
2012-04-11 11:33 51°43.938 2°43.773 14.8 284 7.8 99710 50
2012-04-11 11:34 51°43.715 2°43.748 11.5 343 7.7 99720 51
2012-04-11 11:35 51°43.494 2°43.668 13.8 341 7.7 99720 50
2012-04-11 11:36 51°43.271 2°43.593 17.8 284 7.7 99720 50
2012-04-11 11:37 51°43.055 2°43.514 11.9 341 7.7 99720 51
2012-04-11 11:38 51°42.842 2°43.439 10.2 343 7.7 99720 50
2012-04-11 11:39 51°42.629 2°43.361 17.9 340 7.7 99730 51
2012-04-11 11:40 51°42.42 2°43.244 17.1 279 7.7 99710 51
2012-04-11 11:41 51°42.21 2°43.138 6.4 341 7.8 99730 50
2012-04-11 11:42 51°41.996 2°43.044 6.8 281 7.8 99730 50
2012-04-11 11:43 51°41.786 2°42.938 14.7 338 7.8 99730 51
2012-04-11 11:44 51°41.576 2°42.817 11.9 342 7.8 99720 51
2012-04-11 11:45 51°41.365 2°42.707 11 279 7.8 99730 51
2012-04-11 11:46 51°41.153 2°42.619 14 286 7.8 99730 51
2012-04-11 11:47 51°40.944 2°42.51 11.3 282 7.8 99730 51
2012-04-11 11:48 51°40.734 2°42.397 13.3 284 7.9 99740 50
2012-04-11 11:49 51°40.523 2°42.291 11.7 279 7.9 99730 50
2012-04-11 11:50 51°40.315 2°42.196 14.3 277 7.9 99730 49
2012-04-11 11:51 51°40.101 2°42.083 14.8 281 7.9 99730 49
2012-04-11 11:52 51°39.892 2°41.967 17.1 280 7.9 99720 49
2012-04-11 11:53 51°39.685 2°41.861 8.8 282 7.9 99740 49
2012-04-11 11:54 51°39.469 2°41.763 11.1 278 7.9 99730 49
2012-04-11 11:55 51°39.258 2°41.655 11.9 281 7.9 99750 50
2012-04-11 11:56 51°39.05 2°41.529 12.9 282 7.9 99750 50
2012-04-11 11:57 51°38.84 2°41.406 5.9 280 7.9 99740 50
2012-04-11 11:58 51°38.628 2°41.305 16.1 282 7.9 99740 50
2012-04-11 11:59 51°38.418 2°41.194 16.8 282 7.9 99740 50
2012-04-11 12:00 51°38.209 2°41.086 16.4 281 7.8 99740 51
2012-04-11 12:01 51°38.002 2°40.959 12.5 284 7.8 99740 50
2012-04-11 12:02 51°37.794 2°40.86 11.4 283 7.7 99740 49
2012-04-11 12:03 51°37.587 2°40.741 14.8 285 7.7 99740 49
2012-04-11 12:04 51°37.381 2°40.619 14 287 7.7 99750 49
2012-04-11 12:05 51°37.177 2°40.522 14.8 283 7.7 99740 48
2012-04-11 12:06 51°36.967 2°40.409 14 284 7.8 99760 49
2012-04-11 12:07 51°36.761 2°40.293 15.3 283 7.7 99750 49
2012-04-11 12:08 51°36.553 2°40.202 12.9 287 7.7 99750 49
2012-04-11 12:09 51°36.342 2°40.116 13.5 285 7.7 99750 49
2012-04-11 12:10 51°36.137 2°40.01 6.1 278 7.7 99750 50
2012-04-11 12:11 51°35.931 2°39.903 14.3 286 7.7 99760 50
2012-04-11 12:12 51°35.721 2°39.825 11.1 282 7.7 99750 50
2012-04-11 12:13 51°35.514 2°39.731 11.2 281 7.7 99750 49
2012-04-11 12:14 51°35.307 2°39.638 13.9 280 7.7 99750 50
2012-04-11 12:15 51°35.104 2°39.525 10.3 280 7.6 99750 50
2012-04-11 12:16 51°34.898 2°39.422 10.6 282 7.7 99750 50
2012-04-11 12:17 51°34.689 2°39.344 10.4 279 7.6 99760 49
2012-04-11 12:18 51°34.483 2°39.251 10.1 280 7.6 99760 50
2012-04-11 12:19 51°34.277 2°39.146 13.9 285 7.6 99760 49
2012-04-11 12:20 51°34.072 2°39.039 10.6 281 7.6 99760 49
2012-04-11 12:21 51°33.863 2°38.955 13.9 278 7.6 99770 50
2012-04-11 12:22 51°33.658 2°38.85 10.8 286 7.5 99770 49
2012-04-11 12:23 51°33.455 2°38.727 9.6 280 7.5 99770 49
2012-04-11 12:24 51°33.249 2°38.622 9.9 282 7.6 99770 50
2012-04-11 12:25 51°33.043 2°38.516 13.4 280 7.6 99770 49
2012-04-11 12:26 51°32.842 2°38.386 12.8 288 7.7 99770 50
2012-04-11 12:27 51°32.637 2°38.277 9.2 281 7.7 99770 50
2012-04-11 12:28 51°32.429 2°38.178 10.1 282 7.6 99770 49
2012-04-11 12:29 51°32.227 2°38.05 10.3 278 7.7 99770 50
2012-04-11 12:30 51°32.021 2°37.941 10.2 287 7.7 99770 51
2012-04-11 12:31 51°31.815 2°37.829 12.4 283 7.7 99760 50
2012-04-11 12:32 51°31.613 2°37.695 11.3 285 7.7 99770 50
2012-04-11 12:33 51°31.403 2°37.592 9.7 281 7.6 99770 50
2012-04-11 12:34 51°31.191 2°37.509 11.2 281 7.5 99770 50
2012-04-11 12:35 51°30.981 2°37.403 9.9 282 7.5 99770 50
2012-04-11 12:36 51°30.773 2°37.287 8.9 279 7.5 99770 50
2012-04-11 12:37 51°30.56 2°37.2 9.9 286 7.5 99770 50
2012-04-11 12:38 51°30.35 2°37.101 8.8 286 7.5 99770 50
2012-04-11 12:39 51°30.141 2°36.998 9.6 277 7.5 99770 50
2012-04-11 12:40 51°29.929 2°36.915 8.9 279 7.5 99770 49
2012-04-11 12:41 51°29.721 2°36.828 11.8 286 7.5 99770 50
2012-04-11 12:42 51°29.507 2°36.719 10 281 7.5 99770 50
2012-04-11 12:43 51°29.295 2°36.681 9.9 350 7.5 99770 49
2012-04-11 12:44 51°29.114 2°36.823 7.5 357 7.4 99780 49
2012-04-11 12:45 51°28.961 2°37.026 8.3 358 7.3 99790 50
2012-04-11 12:46 51°28.8 2°37.233 7 358 7.2 99790 50
2012-04-11 12:47 51°28.647 2°37.436 5.6 2 7.1 99790 49
2012-04-11 12:48 51°28.514 2°37.605 4.1 5 7.1 99800 51
2012-04-11 12:49 51°28.403 2°37.722 7.1 1 7.2 99800 51
2012-04-11 12:50 51°28.282 2°37.793 8.3 360 7.1 99790 51
2012-04-11 12:51 51°28.162 2°37.875 6.3 3 7.1 99790 49
2012-04-11 12:52 51°28.039 2°38.005 5.8 6 7.1 99790 49
2012-04-11 12:53 51°27.921 2°38.205 6.8 -999 7.1 99790 49
2012-04-11 12:54 51°27.772 2°38.408 8.1 1 7.2 99780 48
2012-04-11 12:55 51°27.622 2°38.618 7.2 3 7.2 99800 50
2012-04-11 12:56 51°27.483 2°38.841 7 2 7.2 99790 48
2012-04-11 12:57 51°27.354 2°39.072 6.8 357 7.2 99790 49
2012-04-11 12:58 51°27.221 2°39.301 7.3 356 7.2 99790 49
2012-04-11 12:59 51°27.083 2°39.525 6.7 1 7.2 99780 49
2012-04-11 13:00 51°26.954 2°39.76 7.3 359 7.2 99780 48
2012-04-11 13:01 51°26.831 2°40 7.4 1 7.2 99780 50
2012-04-11 13:02 51°26.711 2°40.244 8.3 360 7.2 99790 50
2012-04-11 13:03 51°26.587 2°40.485 7.4 355 7.2 99790 49
2012-04-11 13:04 51°26.461 2°40.72 8.1 359 7.2 99780 48
2012-04-11 13:05 51°26.333 2°40.949 7.6 355 7.1 99780 48
2012-04-11 13:06 51°26.208 2°41.177 6.4 -999 7.2 99790 48
2012-04-11 13:07 51°26.087 2°41.408 8.1 357 7.2 99780 49
2012-04-11 13:08 51°25.942 2°41.608 9.3 355 7.2 99780 48
2012-04-11 13:09 51°25.795 2°41.8 7.6 358 7.2 99780 48
2012-04-11 13:10 51°25.643 2°42 8.2 354 7.2 99780 50
2012-04-11 13:11 51°25.485 2°42.182 8.5 355 7.2 99780 49
2012-04-11 13:12 51°25.329 2°42.367 8.7 354 7.2 99780 49
2012-04-11 13:13 51°25.179 2°42.566 7.7 353 7.2 99780 49
2012-04-11 13:14 51°25.03 2°42.77 7.9 354 7.1 99780 48
2012-04-11 13:15 51°24.874 2°42.964 8.5 353 7.1 99780 47
2012-04-11 13:16 51°24.72 2°43.162 7.2 356 7.2 99780 48
2012-04-11 13:17 51°24.566 2°43.361 8.2 355 7.2 99770 47
2012-04-11 13:18 51°24.42 2°43.573 7.2 354 7.2 99770 47
2012-04-11 13:19 51°24.27 2°43.776 7.8 352 7.2 99780 48
2012-04-11 13:20 51°24.099 2°43.922 8 354 7.2 99770 48
2012-04-11 13:21 51°23.932 2°44.065 8.6 353 7.2 99770 47
2012-04-11 13:22 51°23.774 2°44.225 7.7 356 7.2 99770 46
2012-04-11 13:23 51°23.616 2°44.388 8.8 358 7.3 99770 48
2012-04-11 13:24 51°23.449 2°44.535 7.4 357 7.3 99770 48
2012-04-11 13:25 51°23.285 2°44.694 7.3 356 7.2 99770 46
2012-04-11 13:26 51°23.129 2°44.873 6.3 356 7.2 99770 45
2012-04-11 13:27 51°22.978 2°45.057 6.5 354 7.2 99780 45
2012-04-11 13:28 51°22.814 2°45.233 7.7 355 7.3 99780 46
2012-04-11 13:29 51°22.653 2°45.408 7.6 359 7.2 99780 45
2012-04-11 13:30 51°22.498 2°45.604 7.2 358 7.2 99780 44
2012-04-11 13:31 51°22.341 2°45.791 7.4 2 7.2 99780 46
2012-04-11 13:32 51°22.18 2°45.987 7 357 7.3 99780 46
2012-04-11 13:33 51°22.022 2°46.186 7.6 357 7.2 99780 45
2012-04-11 13:34 51°21.861 2°46.376 7.3 356 7.3 99790 45
2012-04-11 13:35 51°21.705 2°46.578 7.3 356 7.3 99790 47
2012-04-11 13:36 51°21.548 2°46.776 6.7 358 7.3 99790 46
2012-04-11 13:37 51°21.389 2°46.968 5.9 1 7.3 99780 46
2012-04-11 13:38 51°21.241 2°47.175 6 359 7.3 99780 45
2012-04-11 13:39 51°21.089 2°47.389 6 358 7.4 99790 47
2012-04-11 13:40 51°20.935 2°47.588 6 357 7.4 99790 46
2012-04-11 13:41 51°20.775 2°47.774 6.7 354 7.4 99780 46
2012-04-11 13:42 51°20.619 2°47.972 6 357 7.4 99790 47
2012-04-11 13:43 51°20.467 2°48.179 5.5 359 7.4 99780 46
2012-04-11 13:44 51°20.314 2°48.378 6 357 7.4 99790 48
2012-04-11 13:45 51°20.159 2°48.557 5.9 358 7.4 99780 47
2012-04-11 13:46 51°20.008 2°48.758 5.6 358 7.5 99790 47
2012-04-11 13:47 51°19.861 2°48.962 5.1 358 7.5 99790 48
2012-04-11 13:48 51°19.705 2°49.156 5.2 359 7.5 99790 49
2012-04-11 13:49 51°19.547 2°49.347 5 -999 7.5 99780 48
2012-04-11 13:50 51°19.401 2°49.565 4.6 356 7.5 99790 47
2012-04-11 13:51 51°19.256 2°49.788 5.6 359 7.6 99790 48
2012-04-11 13:52 51°19.11 2°50.002 5.1 353 7.6 99790 48
2012-04-11 13:53 51°18.957 2°50.221 6.1 353 7.6 99800 47
2012-04-11 13:54 51°18.817 2°50.454 5 354 7.6 99800 48
2012-04-11 13:55 51°18.661 2°50.654 5.1 354 7.6 99800 47
2012-04-11 13:56 51°18.508 2°50.854 5.4 355 7.6 99800 48
2012-04-11 13:57 51°18.353 2°51.054 5.8 355 7.7 99790 48
2012-04-11 13:58 51°18.19 2°51.234 5.8 357 7.7 99790 47
2012-04-11 13:59 51°18.031 2°51.425 5.1 356 7.7 99790 48
2012-04-11 14:00 51°17.876 2°51.621 5.7 355 7.8 99790 48
2012-04-11 14:01 51°17.715 2°51.811 5.5 360 7.8 99790 48
2012-04-11 14:02 51°17.563 2°52.01 5.6 357 7.8 99790 45
2012-04-11 14:03 51°17.402 2°52.176 5.4 355 7.9 99790 48
2012-04-11 14:04 51°17.235 2°52.344 5.5 359 7.9 99790 48
2012-04-11 14:05 51°17.071 2°52.51 5.6 354 7.9 99790 48
2012-04-11 14:06 51°16.896 2°52.642 6.2 356 7.9 99790 47
2012-04-11 14:07 51°16.727 2°52.795 5.6 358 7.9 99790 47
2012-04-11 14:08 51°16.553 2°52.935 6.2 358 7.9 99780 46
2012-04-11 14:09 51°16.377 2°53.068 5.5 358 7.9 99780 47
2012-04-11 14:10 51°16.206 2°53.214 5.9 358 7.9 99780 46
2012-04-11 14:11 51°16.029 2°53.339 5.7 358 8 99780 48
2012-04-11 14:12 51°15.86 2°53.48 5.1 358 8 99780 47
2012-04-11 14:13 51°15.685 2°53.624 5.4 355 8 99780 47
2012-04-11 14:14 51°15.519 2°53.782 4 359 8 99790 47
2012-04-11 14:15 51°15.362 2°53.966 4.4 359 8 99790 47
2012-04-11 14:16 51°15.213 2°54.17 3.9 351 8.1 99790 48
2012-04-11 14:17 51°15.073 2°54.391 3.1 358 8.1 99790 48
2012-04-11 14:18 51°14.93 2°54.603 4.2 359 8.1 99790 47
2012-04-11 14:19 51°14.779 2°54.797 4.5 358 8.1 99790 48
2012-04-11 14:20 51°14.624 2°54.98 5.6 354 8.2 99790 47
2012-04-11 14:21 51°14.458 2°55.113 5.6 359 8.2 99790 47
2012-04-11 14:22 51°14.288 2°55.25 4.8 8 8.2 99790 46
2012-04-11 14:23 51°14.162 2°55.386 3.2 358 8.3 99790 48
2012-04-11 14:24 51°14.039 2°55.478 4.4 356 8.5 99790 47
2012-04-11 14:25 51°13.943 2°55.546 2.2 356 8.6 99790 47
2012-04-11 14:26 51°13.86 2°55.607 3.3 29 8.7 99790 46
2012-04-11 14:27 51°13.783 2°55.678 0.8 44 8.8 99790 46
2012-04-11 14:28 51°13.717 2°55.778 0.4 20 8.9 99790 45
2012-04-11 14:29 51°13.664 2°55.895 3.4 38 9.1 99780 46
2012-04-11 14:30 51°13.643 2°55.988 0.6 79 9.2 99790 46